Time;durP1;ratioP1;P1;durP2;ratioP2;P2;SDS_P1;SDS_P2;PMS_P1;PMS_P2;Temp;Humidity;BMP_temperature;BMP_pressure;BME280_temperature;BME280_humidity;BME280_pressure;Samples;Min_cycle;Max_cycle;Signal;HPM_P1;HPM_P2
2022/10/11 00:01:20;;;;;;;;;;;19.10;99.90;;;;;;5050483;28;19952;-85
2022/10/11 00:03:46;;;;;;;;;;;19.10;99.90;;;;;;5042532;28;19920;-82
2022/10/11 00:06:13;;;;;;;;;;;19.20;99.90;;;;;;5052591;28;20369;-89
2022/10/11 00:08:40;;;;;;;;;;;19.20;99.90;;;;;;5039145;28;20355;-82
2022/10/11 00:11:07;;;;;;;;;;;19.20;99.90;;;;;;5042313;28;19917;-83
2022/10/11 00:13:34;;;;;;;;;;;19.10;99.90;;;;;;5049981;28;19987;-84
2022/10/11 00:16:00;;;;;;;;;;;18.90;99.90;;;;;;5052926;28;19913;-81
2022/10/11 00:18:27;;;;;;;;;;;18.90;99.90;;;;;;5035042;28;19932;-77
2022/10/11 00:21:03;;;;;;;;;;;18.80;99.90;;;;;;5037329;28;19913;-84
2022/10/11 00:23:30;;;;;;;;;;;18.80;99.90;;;;;;5036143;28;20371;-82
2022/10/11 00:26:00;;;;;;;;;;;18.70;99.90;;;;;;5036593;28;19916;-83
2022/10/11 00:28:27;;;;;;;;;;;18.70;99.90;;;;;;5039769;28;19925;-83
2022/10/11 00:30:54;;;;;;;;;;;18.80;99.90;;;;;;5042271;28;19917;-81
2022/10/11 00:33:21;;;;;;;;;;;18.90;99.90;;;;;;5037467;28;19925;-75
2022/10/11 00:35:48;;;;;;;;;;;18.90;99.90;;;;;;5054924;28;22573;-86
2022/10/11 00:38:14;;;;;;;;;;;18.90;99.90;;;;;;5035371;28;20676;-82
2022/10/11 00:40:41;;;;;;;;;;;18.90;99.90;;;;;;5041786;28;19921;-81
2022/10/11 00:43:15;;;;;;;;;;;18.90;99.90;;;;;;5048665;28;19913;-77
2022/10/11 00:45:57;;;;;;;;;;;18.90;99.90;;;;;;5044405;28;20011;-84
2022/10/11 00:48:26;;;;;;;;;;;19.00;99.90;;;;;;5054914;28;19920;-86
2022/10/11 00:50:58;;;;;;;;;;;19.10;99.90;;;;;;5053111;28;19936;-82
2022/10/11 00:53:25;;;;;;;;;;;19.00;99.90;;;;;;5041656;28;19951;-76
2022/10/11 00:55:59;;;;;;;;;;;18.90;99.90;;;;;;5042548;28;19917;-81
2022/10/11 00:58:25;;;;;;;;;;;18.80;99.90;;;;;;5043837;28;19956;-87
2022/10/11 01:00:53;;;;;;;;;;;18.70;99.90;;;;;;5038373;28;19917;-85
2022/10/11 01:03:22;;;;;;;;;;;18.80;99.90;;;;;;5040666;28;20848;-82
2022/10/11 01:05:49;;;;;;;;;;;18.70;99.90;;;;;;5041455;28;20288;-78
2022/10/11 01:08:15;;;;;;;;;;;18.80;99.90;;;;;;5043954;28;19921;-79
2022/10/11 01:10:42;;;;;;;;;;;18.90;99.90;;;;;;5053787;28;20006;-79
2022/10/11 01:13:12;;;;;;;;;;;19.10;99.90;;;;;;5041731;28;19924;-76
2022/10/11 01:16:08;;;;;;;;;;;19.30;99.90;;;;;;5044458;28;19913;-86
2022/10/11 01:18:42;;;;;;;;;;;19.40;99.90;;;;;;5027279;28;20368;-87
2022/10/11 01:21:21;;;;;;;;;;;19.80;99.90;;;;;;5040488;28;19966;-87
2022/10/11 01:24:03;;;;;;;;;;;20.00;99.90;;;;;;5044615;28;20611;-87
2022/10/11 01:26:49;;;;;;;;;;;20.30;99.90;;;;;;5044403;28;19917;-87
2022/10/11 01:29:25;;;;;;;;;;;20.40;99.90;;;;;;5036424;28;20015;-83
2022/10/11 01:31:55;;;;;;;;;;;20.70;99.90;;;;;;5050143;28;19949;-81
2022/10/11 01:34:30;;;;;;;;;;;21.10;99.70;;;;;;5050246;28;20413;-82
2022/10/11 01:36:56;;;;;;;;;;;21.60;99.60;;;;;;5051430;28;20249;-84
2022/10/11 01:39:35;;;;;;;;;;;22.10;98.40;;;;;;5043876;28;19920;-80
2022/10/11 01:42:04;;;;;;;;;;;22.20;98.50;;;;;;5043122;28;19944;-81
2022/10/11 01:44:33;;;;;;;;;;;22.00;97.20;;;;;;5048541;28;20278;-79
2022/10/11 01:46:59;;;;;;;;;;;21.70;97.60;;;;;;5054668;28;19917;-82
2022/10/11 01:49:26;;;;;;;;;;;21.30;97.80;;;;;;5047704;28;20011;-75
2022/10/11 01:51:54;;;;;;;;;;;20.90;98.40;;;;;;5049684;28;19974;-82
2022/10/11 01:54:30;;;;;;;;;;;20.60;98.40;;;;;;5045073;28;19955;-74
2022/10/11 01:57:17;;;;;;;;;;;20.30;99.50;;;;;;5038028;28;19951;-78
2022/10/11 02:00:03;;;;;;;;;;;20.00;99.40;;;;;;5050463;28;19913;-81
2022/10/11 02:02:45;;;;;;;;;;;19.70;99.80;;;;;;5044439;28;20087;-79
2022/10/11 02:05:14;;;;;;;;;;;19.60;99.90;;;;;;5052722;28;19912;-76
2022/10/11 02:07:44;;;;;;;;;;;19.50;99.90;;;;;;5046397;28;20373;-76
2022/10/11 02:10:15;;;;;;;;;;;19.40;99.90;;;;;;5050955;28;19971;-82
2022/10/11 02:12:53;;;;;;;;;;;19.30;99.90;;;;;;5050379;28;19921;-82
2022/10/11 02:15:20;;;;;;;;;;;19.30;99.90;;;;;;5050969;28;19936;-84
2022/10/11 02:17:49;;;;;;;;;;;19.20;99.90;;;;;;5046988;28;19927;-79
2022/10/11 02:20:19;;;;;;;;;;;19.10;99.90;;;;;;5049131;28;19943;-81
2022/10/11 02:22:47;;;;;;;;;;;18.90;99.90;;;;;;5045990;28;19913;-82
2022/10/11 02:25:16;;;;;;;;;;;18.90;99.90;;;;;;5038694;28;20089;-81
2022/10/11 02:27:44;;;;;;;;;;;18.80;99.90;;;;;;5044069;28;19913;-78
2022/10/11 02:30:11;;;;;;;;;;;18.80;99.90;;;;;;5044265;28;19913;-80
2022/10/11 02:32:40;;;;;;;;;;;18.80;99.90;;;;;;5051945;28;19921;-78
2022/10/11 02:35:07;;;;;;;;;;;18.80;99.90;;;;;;5050728;28;19917;-75
2022/10/11 02:37:49;;;;;;;;;;;18.90;99.90;;;;;;5053448;28;19913;-83
2022/10/11 02:40:38;;;;;;;;;;;19.00;99.90;;;;;;5051013;28;19924;-78
2022/10/11 02:43:11;;;;;;;;;;;19.10;99.90;;;;;;5045342;28;19935;-77
2022/10/11 02:45:43;;;;;;;;;;;19.20;99.80;;;;;;5047926;28;19920;-83
2022/10/11 02:48:10;;;;;;;;;;;19.20;99.70;;;;;;5035324;28;19919;-78
2022/10/11 02:50:39;;;;;;;;;;;19.30;99.90;;;;;;5030405;28;19913;-82
2022/10/11 02:53:06;;;;;;;;;;;19.40;99.70;;;;;;5043182;28;19923;-83
2022/10/11 02:55:33;;;;;;;;;;;19.40;99.10;;;;;;5036002;28;19917;-84
2022/10/11 02:58:00;;;;;;;;;;;19.40;99.30;;;;;;5046079;28;19966;-86
2022/10/11 03:00:27;;;;;;;;;;;19.40;99.60;;;;;;5042608;28;19921;-73
2022/10/11 03:02:54;;;;;;;;;;;19.50;99.50;;;;;;5043123;28;19917;-78
2022/10/11 03:05:20;;;;;;;;;;;19.50;99.30;;;;;;5046656;28;19974;-81
2022/10/11 03:07:47;;;;;;;;;;;19.50;99.30;;;;;;5053198;28;19978;-80
2022/10/11 03:10:14;;;;;;;;;;;19.60;99.20;;;;;;5041093;28;20328;-79
2022/10/11 03:12:40;;;;;;;;;;;19.50;99.10;;;;;;5052569;28;19920;-79
2022/10/11 03:15:07;;;;;;;;;;;19.50;99.40;;;;;;5052868;28;20272;-76
2022/10/11 03:17:34;;;;;;;;;;;19.60;99.20;;;;;;5044243;28;19913;-81
2022/10/11 03:20:00;;;;;;;;;;;19.60;99.10;;;;;;5049864;28;20007;-75
2022/10/11 03:22:27;;;;;;;;;;;19.60;99.30;;;;;;5040978;28;19940;-73
2022/10/11 03:24:54;;;;;;;;;;;19.60;99.10;;;;;;5052352;28;19975;-78
2022/10/11 03:27:20;;;;;;;;;;;19.60;99.10;;;;;;5054234;28;19928;-79
2022/10/11 03:29:47;;;;;;;;;;;19.50;99.10;;;;;;5042323;28;19916;-77
2022/10/11 03:32:14;;;;;;;;;;;19.50;99.60;;;;;;5035173;28;19928;-77
2022/10/11 03:34:40;;;;;;;;;;;19.50;99.10;;;;;;5034053;28;21549;-77
2022/10/11 03:37:07;;;;;;;;;;;19.60;99.00;;;;;;5038803;28;19917;-76
2022/10/11 03:39:34;;;;;;;;;;;19.70;98.80;;;;;;5046170;28;20370;-79
2022/10/11 03:42:02;;;;;;;;;;;19.90;98.60;;;;;;5040365;28;19967;-78
2022/10/11 03:44:28;;;;;;;;;;;19.90;98.50;;;;;;5048118;28;19919;-81
2022/10/11 03:46:55;;;;;;;;;;;20.00;98.60;;;;;;5056042;28;19921;-76
2022/10/11 03:49:22;;;;;;;;;;;20.10;97.80;;;;;;5042223;28;19952;-77
2022/10/11 03:51:49;;;;;;;;;;;20.10;97.80;;;;;;5039804;28;19917;-75
2022/10/11 03:54:15;;;;;;;;;;;20.10;98.20;;;;;;5047658;28;19925;-80
2022/10/11 03:56:42;;;;;;;;;;;20.20;98.10;;;;;;5045656;28;20280;-82
2022/10/11 03:59:09;;;;;;;;;;;20.20;97.70;;;;;;5048332;28;19917;-80
2022/10/11 04:01:37;;;;;;;;;;;20.40;98.40;;;;;;5052857;28;19920;-79
2022/10/11 04:04:04;;;;;;;;;;;20.50;97.20;;;;;;5047731;28;19917;-76
2022/10/11 04:06:31;;;;;;;;;;;20.50;97.90;;;;;;5045558;28;20008;-76
2022/10/11 04:08:58;;;;;;;;;;;20.40;97.60;;;;;;5042921;28;19920;-77
2022/10/11 04:11:24;;;;;;;;;;;20.50;97.70;;;;;;5054002;28;19912;-80
2022/10/11 04:13:51;;;;;;;;;;;20.60;97.50;;;;;;5041854;28;20309;-77
2022/10/11 04:16:18;;;;;;;;;;;20.60;97.40;;;;;;5053371;28;19948;-78
2022/10/11 04:18:44;;;;;;;;;;;20.50;97.10;;;;;;5048073;28;20282;-80
2022/10/11 04:21:11;;;;;;;;;;;20.40;97.20;;;;;;5051220;28;19912;-79
2022/10/11 04:23:38;;;;;;;;;;;20.30;97.60;;;;;;5051328;28;19921;-80
2022/10/11 04:26:05;;;;;;;;;;;20.20;97.60;;;;;;5043842;28;19931;-79
2022/10/11 04:28:33;;;;;;;;;;;20.20;97.70;;;;;;5036909;28;19928;-82
2022/10/11 04:31:00;;;;;;;;;;;20.10;97.80;;;;;;5046697;28;19920;-78
2022/10/11 04:33:26;;;;;;;;;;;20.10;98.10;;;;;;5036503;28;19917;-81
2022/10/11 04:35:54;;;;;;;;;;;20.00;97.50;;;;;;5042182;28;19945;-79
2022/10/11 04:38:21;;;;;;;;;;;20.00;98.10;;;;;;5025302;28;19913;-82
2022/10/11 04:40:48;;;;;;;;;;;20.00;98.10;;;;;;5019915;28;19948;-80
2022/10/11 04:43:16;;;;;;;;;;;20.00;98.30;;;;;;5018352;28;19940;-76
2022/10/11 04:45:43;;;;;;;;;;;20.10;98.00;;;;;;5024376;28;19985;-78
2022/10/11 04:48:09;;;;;;;;;;;20.20;97.90;;;;;;5016214;28;20025;-80
2022/10/11 04:50:36;;;;;;;;;;;20.20;97.80;;;;;;5016912;28;19964;-83
2022/10/11 04:53:03;;;;;;;;;;;20.30;97.90;;;;;;5021806;28;19991;-83
2022/10/11 04:55:30;;;;;;;;;;;20.30;97.50;;;;;;5024268;28;19952;-78
2022/10/11 04:57:56;;;;;;;;;;;20.20;97.40;;;;;;5021643;28;19920;-79
2022/10/11 05:00:23;;;;;;;;;;;20.10;97.90;;;;;;5028110;28;19913;-78
2022/10/11 05:02:51;;;;;;;;;;;20.10;98.10;;;;;;5009657;28;19967;-78
2022/10/11 05:05:18;;;;;;;;;;;20.10;98.10;;;;;;5023974;28;19917;-77
2022/10/11 05:07:45;;;;;;;;;;;20.10;98.00;;;;;;5019124;28;19924;-77
2022/10/11 05:10:11;;;;;;;;;;;20.10;97.90;;;;;;5024428;28;19917;-80
2022/10/11 05:12:38;;;;;;;;;;;20.20;98.00;;;;;;5022770;28;21121;-78
2022/10/11 05:15:05;;;;;;;;;;;20.20;97.80;;;;;;5015588;28;20342;-80
2022/10/11 05:17:32;;;;;;;;;;;20.10;97.70;;;;;;5019122;28;19917;-78
2022/10/11 05:19:58;;;;;;;;;;;20.10;97.80;;;;;;5030004;28;19913;-75
2022/10/11 05:22:25;;;;;;;;;;;19.90;98.00;;;;;;5031827;28;19936;-75
2022/10/11 05:24:52;;;;;;;;;;;19.80;98.30;;;;;;5014686;28;20390;-73
2022/10/11 05:27:18;;;;;;;;;;;19.80;97.90;;;;;;5028796;28;19944;-78
2022/10/11 05:29:45;;;;;;;;;;;19.70;98.20;;;;;;5021836;28;20012;-82
2022/10/11 05:32:12;;;;;;;;;;;19.70;98.40;;;;;;5039361;28;20332;-79
2022/10/11 05:34:38;;;;;;;;;;;19.90;98.00;;;;;;5048567;28;19948;-76
2022/10/11 05:37:05;;;;;;;;;;;20.10;98.30;;;;;;5049693;28;19924;-75
2022/10/11 05:39:32;;;;;;;;;;;20.30;97.90;;;;;;5047111;28;20370;-75
2022/10/11 05:41:59;;;;;;;;;;;20.60;97.80;;;;;;5051291;28;20378;-76
2022/10/11 05:44:25;;;;;;;;;;;20.70;97.30;;;;;;5046263;28;19952;-78
2022/10/11 05:46:52;;;;;;;;;;;20.70;97.60;;;;;;5054797;28;20367;-76
2022/10/11 05:49:18;;;;;;;;;;;20.80;97.20;;;;;;5042254;28;20374;-77
2022/10/11 05:51:45;;;;;;;;;;;20.80;97.60;;;;;;5050003;28;19946;-80
2022/10/11 05:54:12;;;;;;;;;;;20.80;96.40;;;;;;5039478;28;19925;-77
2022/10/11 05:56:39;;;;;;;;;;;20.70;97.00;;;;;;5053064;28;19916;-83
2022/10/11 05:59:06;;;;;;;;;;;20.60;96.80;;;;;;5056653;28;19940;-80
2022/10/11 06:01:32;;;;;;;;;;;20.50;96.90;;;;;;5041782;28;19917;-81
2022/10/11 06:03:59;;;;;;;;;;;20.40;97.10;;;;;;5045038;28;19924;-78
2022/10/11 06:06:26;;;;;;;;;;;20.30;97.40;;;;;;5055958;28;19913;-77
2022/10/11 06:08:52;;;;;;;;;;;20.40;97.00;;;;;;5048281;28;19913;-82
2022/10/11 06:11:21;;;;;;;;;;;20.30;97.30;;;;;;5046237;28;20014;-77
2022/10/11 06:13:47;;;;;;;;;;;20.30;97.10;;;;;;5036650;28;19948;-77
2022/10/11 06:16:15;;;;;;;;;;;20.20;97.30;;;;;;5044025;28;19983;-83
2022/10/11 06:18:41;;;;;;;;;;;20.00;97.10;;;;;;5052191;28;19943;-78
2022/10/11 06:21:08;;;;;;;;;;;19.90;97.30;;;;;;5046537;28;19971;-82
2022/10/11 06:23:35;;;;;;;;;;;19.90;97.20;;;;;;5046058;28;19944;-77
2022/10/11 06:26:06;;;;;;;;;;;19.90;97.50;;;;;;5046751;28;19920;-77
2022/10/11 06:28:34;;;;;;;;;;;19.90;97.60;;;;;;5039966;28;19920;-82
2022/10/11 06:31:02;;;;;;;;;;;19.90;97.20;;;;;;5044322;28;19916;-78
2022/10/11 06:33:29;;;;;;;;;;;19.80;97.30;;;;;;5041523;28;19982;-76
2022/10/11 06:35:57;;;;;;;;;;;19.60;97.40;;;;;;5035589;28;19927;-77
2022/10/11 06:38:24;;;;;;;;;;;19.60;97.50;;;;;;5058557;28;19913;-82
2022/10/11 06:40:51;;;;;;;;;;;19.50;97.50;;;;;;5043318;28;19917;-76
2022/10/11 06:43:18;;;;;;;;;;;19.30;97.70;;;;;;5046993;28;19948;-79
2022/10/11 06:45:45;;;;;;;;;;;19.20;98.00;;;;;;5038652;28;19913;-78
2022/10/11 06:48:12;;;;;;;;;;;19.10;97.80;;;;;;5063171;28;19917;-83
2022/10/11 06:50:39;;;;;;;;;;;19.00;98.20;;;;;;5039537;28;19912;-76
2022/10/11 06:53:08;;;;;;;;;;;18.90;98.20;;;;;;5040109;28;19924;-77
2022/10/11 06:55:35;;;;;;;;;;;18.90;98.60;;;;;;5069389;28;20292;-79
2022/10/11 06:58:02;;;;;;;;;;;18.90;98.60;;;;;;5046613;28;20586;-77
2022/10/11 07:00:28;;;;;;;;;;;18.90;98.40;;;;;;5049727;28;19913;-84
2022/10/11 07:02:55;;;;;;;;;;;18.80;98.60;;;;;;5054800;28;19921;-76
2022/10/11 07:05:22;;;;;;;;;;;18.80;98.60;;;;;;5050013;28;20699;-83
2022/10/11 07:07:48;;;;;;;;;;;18.80;98.70;;;;;;5048994;28;19983;-76
2022/10/11 07:10:15;;;;;;;;;;;18.80;98.50;;;;;;5044796;28;20558;-77
2022/10/11 07:12:45;;;;;;;;;;;18.70;98.60;;;;;;5037616;28;19909;-76
2022/10/11 07:15:12;;;;;;;;;;;18.70;98.90;;;;;;5036942;28;19933;-75
2022/10/11 07:17:39;;;;;;;;;;;18.60;98.70;;;;;;5055243;28;19917;-80
2022/10/11 07:20:06;;;;;;;;;;;18.50;99.00;;;;;;5047055;28;20387;-79
2022/10/11 07:22:33;;;;;;;;;;;18.40;99.30;;;;;;5034605;28;19917;-79
2022/10/11 07:24:59;;;;;;;;;;;18.40;99.50;;;;;;5052995;28;19912;-76
2022/10/11 07:27:26;;;;;;;;;;;18.40;99.40;;;;;;5039560;28;20070;-75
2022/10/11 07:29:53;;;;;;;;;;;18.30;99.50;;;;;;5039735;28;19913;-75
2022/10/11 07:32:20;;;;;;;;;;;18.30;99.50;;;;;;5055644;28;20384;-75
2022/10/11 07:34:48;;;;;;;;;;;18.20;99.90;;;;;;5049229;28;19928;-76
2022/10/11 07:37:14;;;;;;;;;;;18.10;99.50;;;;;;5037590;28;19917;-83
2022/10/11 07:39:41;;;;;;;;;;;18.10;99.60;;;;;;5042220;28;20027;-78
2022/10/11 07:42:11;;;;;;;;;;;18.00;99.70;;;;;;5036491;28;19956;-82
2022/10/11 07:44:37;;;;;;;;;;;17.90;99.80;;;;;;5041099;28;19928;-76
2022/10/11 07:47:04;;;;;;;;;;;17.80;99.80;;;;;;5054373;28;20356;-76
2022/10/11 07:49:31;;;;;;;;;;;17.80;99.90;;;;;;5044243;28;20406;-80
2022/10/11 07:51:57;;;;;;;;;;;17.70;99.90;;;;;;5043962;28;19916;-77
2022/10/11 07:54:24;;;;;;;;;;;17.70;99.90;;;;;;5058076;28;19927;-81
2022/10/11 07:56:51;;;;;;;;;;;17.70;99.90;;;;;;5045894;28;20419;-75
2022/10/11 07:59:18;;;;;;;;;;;17.60;99.90;;;;;;5044713;28;20036;-78
2022/10/11 08:01:45;;;;;;;;;;;17.60;99.90;;;;;;5064425;28;19921;-76
2022/10/11 08:04:12;;;;;;;;;;;17.60;99.90;;;;;;5046267;28;19913;-75
2022/10/11 08:06:38;;;;;;;;;;;17.60;99.90;;;;;;5052911;28;20000;-77
2022/10/11 08:09:05;;;;;;;;;;;17.60;99.90;;;;;;5038134;28;20257;-76
2022/10/11 08:11:34;;;;;;;;;;;17.50;99.90;;;;;;5043740;28;19913;-78
2022/10/11 08:14:03;;;;;;;;;;;17.50;99.90;;;;;;5037261;28;19921;-78
2022/10/11 08:16:30;;;;;;;;;;;17.50;99.90;;;;;;5053519;28;19913;-79
2022/10/11 08:18:57;;;;;;;;;;;17.50;99.90;;;;;;5080844;28;20004;-80
2022/10/11 08:21:25;;;;;;;;;;;17.40;99.90;;;;;;5078559;28;19963;-78
2022/10/11 08:23:52;;;;;;;;;;;17.40;99.90;;;;;;5048370;28;19917;-80
2022/10/11 08:26:19;;;;;;;;;;;17.40;99.90;;;;;;5053656;28;19917;-77
2022/10/11 08:28:45;;;;;;;;;;;17.30;99.90;;;;;;5056149;28;20359;-76
2022/10/11 08:31:13;;;;;;;;;;;17.30;99.90;;;;;;5048190;28;19920;-78
2022/10/11 08:33:40;;;;;;;;;;;17.20;99.90;;;;;;5038537;28;19936;-78
2022/10/11 08:36:07;;;;;;;;;;;17.20;99.90;;;;;;5041033;28;19940;-77
2022/10/11 08:38:36;;;;;;;;;;;17.10;99.90;;;;;;5036035;28;20019;-79
2022/10/11 08:41:02;;;;;;;;;;;17.00;99.90;;;;;;5039798;28;19923;-77
2022/10/11 08:43:44;;;;;;;;;;;17.00;99.90;;;;;;5038727;28;19965;-77
2022/10/11 08:46:12;;;;;;;;;;;16.90;99.70;;;;;;5037574;28;19960;-78
2022/10/11 08:48:41;;;;;;;;;;;16.90;99.30;;;;;;5037737;28;19928;-81
2022/10/11 08:51:14;;;;;;;;;;;16.90;99.20;;;;;;5035505;28;19928;-81
2022/10/11 08:53:43;;;;;;;;;;;16.90;99.40;;;;;;5038593;28;19936;-85
2022/10/11 08:56:11;;;;;;;;;;;16.90;99.20;;;;;;5038775;28;19924;-84
2022/10/11 08:58:50;;;;;;;;;;;16.90;99.30;;;;;;5038827;28;19921;-82
2022/10/11 09:01:20;;;;;;;;;;;16.80;99.20;;;;;;5038983;28;20542;-81
2022/10/11 09:03:47;;;;;;;;;;;16.90;99.30;;;;;;5039718;28;20415;-86
2022/10/11 09:06:15;;;;;;;;;;;16.80;99.40;;;;;;5036698;28;20474;-86
2022/10/11 09:08:44;;;;;;;;;;;16.80;99.30;;;;;;5038949;28;19948;-80
2022/10/11 09:11:31;;;;;;;;;;;16.80;99.50;;;;;;5042915;28;20008;-86
2022/10/11 09:14:04;;;;;;;;;;;16.80;99.70;;;;;;5034458;28;20367;-83
2022/10/11 09:16:48;;;;;;;;;;;16.80;99.80;;;;;;5038312;28;19943;-84
2022/10/11 09:19:18;;;;;;;;;;;16.70;99.90;;;;;;5038591;28;20439;-87
2022/10/11 09:21:51;;;;;;;;;;;16.70;99.90;;;;;;5074761;28;19923;-88
2022/10/11 09:24:24;;;;;;;;;;;16.80;99.90;;;;;;5047524;28;19917;-85
2022/10/11 09:26:59;;;;;;;;;;;16.70;99.90;;;;;;5046450;28;19955;-81
2022/10/11 09:29:35;;;;;;;;;;;16.70;99.90;;;;;;5049481;28;19913;-87
2022/10/11 09:32:01;;;;;;;;;;;16.70;99.90;;;;;;5045501;28;19929;-87
2022/10/11 09:34:34;;;;;;;;;;;16.70;99.90;;;;;;5037575;28;19929;-81
2022/10/11 09:37:03;;;;;;;;;;;16.70;99.90;;;;;;5042895;28;19920;-83
2022/10/11 09:39:34;;;;;;;;;;;16.70;99.90;;;;;;5047776;28;19959;-85
2022/10/11 09:42:06;;;;;;;;;;;16.70;99.90;;;;;;5046998;28;19913;-84
2022/10/11 09:44:59;;;;;;;;;;;16.60;99.90;;;;;;5035408;28;20286;-84
2022/10/11 09:47:27;;;;;;;;;;;16.60;99.90;;;;;;5044099;28;19916;-83
2022/10/11 09:50:12;;;;;;;;;;;16.60;99.90;;;;;;5042394;28;19976;-83
2022/10/11 09:52:49;;;;;;;;;;;16.60;99.90;;;;;;5039675;28;19913;-86
2022/10/11 09:55:38;;;;;;;;;;;16.60;99.90;;;;;;5034906;28;19977;-84
2022/10/11 09:58:19;;;;;;;;;;;16.60;99.90;;;;;;5040589;28;19967;-84
2022/10/11 10:00:56;;;;;;;;;;;16.50;99.90;;;;;;5048634;28;19952;-84
2022/10/11 10:03:29;;;;;;;;;;;16.50;99.90;;;;;;5038096;28;19916;-83
2022/10/11 10:06:07;;;;;;;;;;;16.50;99.90;;;;;;5044972;28;19924;-84
2022/10/11 10:08:34;;;;;;;;;;;16.50;99.90;;;;;;5039115;28;20312;-85
2022/10/11 10:11:03;;;;;;;;;;;16.50;99.90;;;;;;5040400;28;20295;-83
2022/10/11 10:13:39;;;;;;;;;;;16.50;99.90;;;;;;5040401;28;20277;-85
2022/10/11 10:16:10;;;;;;;;;;;16.50;99.90;;;;;;5036220;28;19917;-87
2022/10/11 10:18:41;;;;;;;;;;;16.50;99.90;;;;;;5037503;28;19999;-83
2022/10/11 10:21:11;;;;;;;;;;;16.50;99.90;;;;;;5032567;28;19976;-81
2022/10/11 10:23:38;;;;;;;;;;;16.40;99.90;;;;;;5018128;28;20589;-86
2022/10/11 10:26:13;;;;;;;;;;;16.50;99.90;;;;;;5025490;28;19947;-85
2022/10/11 10:28:53;;;;;;;;;;;16.40;99.90;;;;;;5022422;28;19921;-87
2022/10/11 10:31:21;;;;;;;;;;;16.40;99.90;;;;;;5024106;28;20274;-82
2022/10/11 10:33:50;;;;;;;;;;;16.40;99.90;;;;;;5025120;28;19933;-86
2022/10/11 10:36:23;;;;;;;;;;;16.40;99.90;;;;;;5021244;28;19921;-82
2022/10/11 10:38:59;;;;;;;;;;;16.40;99.90;;;;;;5021636;28;21623;-81
2022/10/11 10:41:26;;;;;;;;;;;16.40;99.90;;;;;;5028206;28;19921;-82
2022/10/11 10:43:55;;;;;;;;;;;16.30;99.90;;;;;;5026644;28;19979;-82
2022/10/11 10:46:34;;;;;;;;;;;16.40;99.90;;;;;;5027669;28;19928;-81
2022/10/11 10:49:19;;;;;;;;;;;16.30;99.90;;;;;;5025478;28;19959;-80
2022/10/11 10:51:49;;;;;;;;;;;16.30;99.90;;;;;;5022683;28;19921;-85
2022/10/11 10:54:34;;;;;;;;;;;16.30;99.90;;;;;;5040612;28;19932;-80
2022/10/11 10:57:09;;;;;;;;;;;16.30;99.90;;;;;;5036696;28;20374;-78
2022/10/11 11:00:01;;;;;;;;;;;16.30;99.90;;;;;;5044558;28;19916;-80
2022/10/11 11:02:32;;;;;;;;;;;16.20;99.90;;;;;;5046750;28;19916;-79
2022/10/11 11:05:02;;;;;;;;;;;16.20;99.90;;;;;;5032140;28;19913;-80
2022/10/11 11:07:32;;;;;;;;;;;16.20;99.90;;;;;;5047680;28;19916;-80
2022/10/11 11:10:05;;;;;;;;;;;16.10;99.90;;;;;;5048744;28;19960;-78
2022/10/11 11:12:31;;;;;;;;;;;16.10;99.90;;;;;;5040084;28;20394;-79
2022/10/11 11:15:02;;;;;;;;;;;16.10;99.90;;;;;;5043785;28;19932;-80
2022/10/11 11:17:35;;;;;;;;;;;16.10;99.90;;;;;;5033906;28;22085;-78
2022/10/11 11:20:20;;;;;;;;;;;16.10;99.90;;;;;;5035507;28;19917;-79
2022/10/11 11:23:08;;;;;;;;;;;16.10;99.90;;;;;;5050699;28;20318;-78
2022/10/11 11:25:44;;;;;;;;;;;16.10;99.90;;;;;;5055157;28;19912;-80
2022/10/11 11:28:29;;;;;;;;;;;16.00;99.90;;;;;;5041671;28;19940;-78
2022/10/11 11:31:00;;;;;;;;;;;16.00;99.90;;;;;;5041190;28;20350;-81
2022/10/11 11:33:49;;;;;;;;;;;16.00;99.90;;;;;;5047828;28;19925;-80
2022/10/11 11:36:25;;;;;;;;;;;15.90;99.90;;;;;;5050010;28;19913;-81
2022/10/11 11:38:57;;;;;;;;;;;15.90;99.90;;;;;;5046755;28;19966;-80
2022/10/11 11:41:35;;;;;;;;;;;15.90;99.90;;;;;;5052733;28;19923;-81
2022/10/11 11:44:10;;;;;;;;;;;15.90;99.90;;;;;;5049263;28;19979;-81
2022/10/11 11:46:42;;;;;;;;;;;15.80;99.90;;;;;;5042557;28;19971;-81
2022/10/11 11:49:16;;;;;;;;;;;15.80;99.90;;;;;;5060798;28;20776;-85
2022/10/11 11:51:44;;;;;;;;;;;15.80;99.90;;;;;;5045089;28;19913;-84
2022/10/11 11:54:16;;;;;;;;;;;15.70;99.90;;;;;;5044094;28;20047;-86
2022/10/11 11:57:01;;;;;;;;;;;15.70;99.90;;;;;;5044488;28;19965;-85
2022/10/11 11:59:31;;;;;;;;;;;15.70;99.90;;;;;;5044304;28;19920;-81
2022/10/11 12:02:23;;;;;;;;;;;15.60;99.90;;;;;;5046065;28;19921;-76
2022/10/11 12:04:51;;;;;;;;;;;15.60;99.90;;;;;;5046378;28;20322;-78
2022/10/11 12:07:19;;;;;;;;;;;15.60;99.90;;;;;;5045467;28;19917;-79
2022/10/11 12:09:50;;;;;;;;;;;15.50;99.90;;;;;;5047867;28;19962;-76
2022/10/11 12:12:26;;;;;;;;;;;15.50;99.90;;;;;;5047277;28;19921;-78
2022/10/11 12:15:13;;;;;;;;;;;15.50;99.90;;;;;;5038816;28;19921;-77
2022/10/11 12:17:55;;;;;;;;;;;15.40;99.90;;;;;;5040702;28;20018;-80
2022/10/11 12:20:24;;;;;;;;;;;15.40;99.90;;;;;;5044866;28;19921;-80
2022/10/11 12:23:01;;;;;;;;;;;15.30;99.90;;;;;;5048074;28;19913;-79
2022/10/11 12:25:28;;;;;;;;;;;15.20;99.90;;;;;;5040726;28;20326;-78
2022/10/11 12:28:00;;;;;;;;;;;15.20;99.90;;;;;;5045632;28;19917;-78
2022/10/11 12:30:52;;;;;;;;;;;15.10;99.90;;;;;;5036659;28;19913;-81
2022/10/11 12:33:21;;;;;;;;;;;15.00;99.90;;;;;;5051907;28;19928;-81
2022/10/11 12:35:54;;;;;;;;;;;14.90;99.90;;;;;;5045702;28;19920;-82
2022/10/11 12:38:22;;;;;;;;;;;14.90;99.90;;;;;;5045492;28;20031;-80
2022/10/11 12:40:51;;;;;;;;;;;14.80;99.90;;;;;;5045767;28;20434;-83
2022/10/11 12:43:17;;;;;;;;;;;14.70;99.90;;;;;;5052288;28;19944;-82
2022/10/11 12:45:46;;;;;;;;;;;14.70;99.90;;;;;;5050001;28;20000;-81
2022/10/11 12:48:18;;;;;;;;;;;14.60;99.90;;;;;;5042938;28;19936;-81
2022/10/11 12:50:57;;;;;;;;;;;14.60;99.90;;;;;;5038089;28;19913;-80
2022/10/11 12:53:32;;;;;;;;;;;14.40;99.90;;;;;;5047965;28;20444;-81
2022/10/11 12:56:08;;;;;;;;;;;14.30;99.90;;;;;;5051143;28;19920;-83
2022/10/11 12:58:40;;;;;;;;;;;14.20;99.90;;;;;;5037742;28;19928;-79
2022/10/11 13:01:09;;;;;;;;;;;14.10;99.90;;;;;;5044471;28;19917;-83
2022/10/11 13:03:40;;;;;;;;;;;14.10;99.90;;;;;;5044066;28;19921;-82
2022/10/11 13:06:18;;;;;;;;;;;14.00;99.90;;;;;;5052169;28;19909;-81
2022/10/11 13:08:48;;;;;;;;;;;13.90;99.90;;;;;;5044050;28;19995;-80
2022/10/11 13:11:20;;;;;;;;;;;13.80;99.90;;;;;;5049106;28;20279;-81
2022/10/11 13:13:52;;;;;;;;;;;13.70;99.90;;;;;;5047567;28;20415;-84
2022/10/11 13:16:24;;;;;;;;;;;13.60;99.90;;;;;;5042727;28;19913;-82
2022/10/11 13:18:54;;;;;;;;;;;13.50;99.90;;;;;;5038535;28;20378;-77
2022/10/11 13:21:38;;;;;;;;;;;13.50;99.90;;;;;;5043640;28;20394;-81
2022/10/11 13:24:18;;;;;;;;;;;13.40;99.90;;;;;;5045768;28;19969;-79
2022/10/11 13:26:47;;;;;;;;;;;13.40;99.90;;;;;;5050733;28;19913;-81
2022/10/11 13:29:18;;;;;;;;;;;13.30;99.90;;;;;;5045086;28;19932;-80
2022/10/11 13:31:45;;;;;;;;;;;13.30;99.90;;;;;;5045255;28;19921;-80
2022/10/11 13:34:12;;;;;;;;;;;13.20;99.90;;;;;;5038118;28;19921;-76
2022/10/11 13:36:39;;;;;;;;;;;13.20;99.90;;;;;;5048041;28;19924;-81
2022/10/11 13:39:06;;;;;;;;;;;13.10;99.90;;;;;;5050880;28;19913;-80
2022/10/11 13:41:34;;;;;;;;;;;13.10;99.90;;;;;;5053063;28;19913;-80
2022/10/11 13:44:02;;;;;;;;;;;13.00;99.90;;;;;;5045900;28;20035;-81
2022/10/11 13:46:29;;;;;;;;;;;13.00;99.90;;;;;;5043003;28;19913;-81
2022/10/11 13:48:57;;;;;;;;;;;13.00;99.90;;;;;;5039767;28;19917;-78
2022/10/11 13:51:32;;;;;;;;;;;13.00;99.90;;;;;;5041732;28;19912;-79
2022/10/11 13:54:08;;;;;;;;;;;13.00;99.90;;;;;;5048012;28;20010;-81
2022/10/11 13:56:47;;;;;;;;;;;13.00;99.90;;;;;;5047644;28;20366;-81
2022/10/11 13:59:20;;;;;;;;;;;13.00;99.90;;;;;;5045437;28;19940;-80
2022/10/11 14:01:48;;;;;;;;;;;13.00;99.90;;;;;;5049600;28;19936;-78
2022/10/11 14:04:16;;;;;;;;;;;12.90;99.90;;;;;;5046742;28;20386;-79
2022/10/11 14:06:45;;;;;;;;;;;12.90;99.90;;;;;;5048199;28;19913;-78
2022/10/11 14:09:19;;;;;;;;;;;12.80;99.90;;;;;;5044465;28;20220;-81
2022/10/11 14:11:45;;;;;;;;;;;12.80;99.90;;;;;;5035670;28;19992;-80
2022/10/11 14:14:30;;;;;;;;;;;12.70;99.90;;;;;;5038532;28;19975;-80
2022/10/11 14:16:58;;;;;;;;;;;12.70;99.90;;;;;;5050309;28;19920;-77
2022/10/11 14:19:24;;;;;;;;;;;12.60;99.90;;;;;;5046888;28;19913;-79
2022/10/11 14:21:52;;;;;;;;;;;12.50;99.90;;;;;;5046205;28;19913;-80
2022/10/11 14:24:19;;;;;;;;;;;12.50;99.90;;;;;;5044383;28;19917;-79
2022/10/11 14:26:48;;;;;;;;;;;12.40;99.90;;;;;;5051162;28;19913;-79
2022/10/11 14:29:25;;;;;;;;;;;12.40;99.90;;;;;;5045612;28;20070;-79
2022/10/11 14:31:55;;;;;;;;;;;12.30;99.90;;;;;;5052184;28;20398;-78
2022/10/11 14:34:23;;;;;;;;;;;12.30;99.90;;;;;;5053783;28;20516;-79